Time;durP1;ratioP1;P1;durP2;ratioP2;P2;SDS_P1;SDS_P2;PMS_P1;PMS_P2;Temp;Humidity;BMP_temperature;BMP_pressure;BME280_temperature;BME280_humidity;BME280_pressure;Samples;Min_cycle;Max_cycle;Signal;HPM_P1;HPM_P2
2021/08/07 00:02:25;;;;;;;3.57;3.00;;;17.70;95.80;;;;;;5094052;28;20524;-66
2021/08/07 00:04:54;;;;;;;5.30;2.90;;;17.70;95.80;;;;;;5093784;28;20943;-68
2021/08/07 00:07:23;;;;;;;4.83;4.07;;;17.60;95.90;;;;;;5073642;28;20953;-67
2021/08/07 00:09:50;;;;;;;5.43;2.90;;;17.60;96.00;;;;;;5073812;28;20432;-66
2021/08/07 00:12:17;;;;;;;4.20;2.80;;;17.60;96.20;;;;;;5092856;28;20439;-66
2021/08/07 00:14:45;;;;;;;4.70;3.20;;;17.60;96.60;;;;;;5093996;28;20936;-66
2021/08/07 00:17:12;;;;;;;6.67;3.90;;;17.50;96.80;;;;;;5093384;28;20561;-66
2021/08/07 00:19:39;;;;;;;6.03;3.90;;;17.50;96.90;;;;;;5093863;28;20493;-66
2021/08/07 00:22:08;;;;;;;6.20;5.20;;;17.50;96.80;;;;;;5093481;28;20929;-67
2021/08/07 00:24:35;;;;;;;5.50;4.33;;;17.40;97.20;;;;;;5093617;28;20925;-66
2021/08/07 00:27:02;;;;;;;9.03;4.17;;;17.40;97.60;;;;;;5093609;28;20435;-67
2021/08/07 00:29:34;;;;;;;3.93;3.50;;;17.40;97.80;;;;;;5093737;28;20480;-66
2021/08/07 00:32:02;;;;;;;3.77;3.37;;;17.40;97.90;;;;;;5093258;28;20843;-66
2021/08/07 00:34:29;;;;;;;3.77;2.97;;;17.40;97.90;;;;;;5093503;28;20436;-66
2021/08/07 00:36:56;;;;;;;6.20;3.37;;;17.50;97.90;;;;;;5092728;28;20471;-67
2021/08/07 00:39:25;;;;;;;3.50;2.80;;;17.50;97.90;;;;;;5093501;28;20913;-67
2021/08/07 00:41:52;;;;;;;5.43;3.50;;;17.50;97.90;;;;;;5093181;28;20440;-66
2021/08/07 00:44:19;;;;;;;3.87;3.10;;;17.50;97.80;;;;;;5093644;28;20534;-67
2021/08/07 00:46:46;;;;;;;4.53;3.30;;;17.50;97.70;;;;;;5092853;28;20933;-66
2021/08/07 00:49:14;;;;;;;6.20;3.00;;;17.50;97.80;;;;;;5093329;28;20846;-67
2021/08/07 00:51:41;;;;;;;4.77;3.37;;;17.50;97.70;;;;;;5093546;28;20457;-66
2021/08/07 00:54:08;;;;;;;3.60;2.70;;;17.50;97.50;;;;;;5093672;28;20519;-67
2021/08/07 00:56:36;;;;;;;3.47;2.90;;;17.50;97.60;;;;;;5092676;28;21018;-66
2021/08/07 00:59:04;;;;;;;4.13;3.30;;;17.50;97.50;;;;;;5093139;28;20500;-66
2021/08/07 01:01:37;;;;;;;5.13;3.30;;;17.50;97.50;;;;;;5092957;28;20481;-67
2021/08/07 01:04:08;;;;;;;6.13;3.20;;;17.40;97.40;;;;;;5092514;28;20462;-67
2021/08/07 01:06:47;;;;;;;5.90;3.00;;;17.40;97.80;;;;;;5093285;28;20530;-66
2021/08/07 01:09:22;;;;;;;4.20;3.03;;;17.30;97.70;;;;;;5093267;28;20496;-66
2021/08/07 01:11:59;;;;;;;4.00;2.80;;;17.30;97.60;;;;;;5093338;28;20517;-67
2021/08/07 01:14:34;;;;;;;5.47;3.47;;;17.30;97.60;;;;;;5092437;28;20431;-67
2021/08/07 01:17:03;;;;;;;4.20;2.97;;;17.30;97.70;;;;;;5093366;28;20572;-67
2021/08/07 01:19:39;;;;;;;4.03;3.60;;;17.30;97.90;;;;;;5092460;28;20482;-67
2021/08/07 01:22:07;;;;;;;4.20;2.90;;;17.30;97.90;;;;;;5093091;28;20490;-67
2021/08/07 01:24:37;;;;;;;3.80;3.30;;;17.30;97.80;;;;;;5093113;28;20518;-66
2021/08/07 01:27:25;;;;;;;4.43;3.57;;;17.30;97.80;;;;;;5092446;28;20471;-67
2021/08/07 01:29:54;;;;;;;5.67;3.20;;;17.30;97.80;;;;;;5093181;28;20526;-66
2021/08/07 01:32:25;;;;;;;6.80;3.57;;;17.30;97.90;;;;;;5092857;28;20438;-66
2021/08/07 01:34:53;;;;;;;5.73;3.73;;;17.20;98.00;;;;;;5093161;28;20443;-66
2021/08/07 01:37:21;;;;;;;4.70;3.13;;;17.20;98.00;;;;;;5093017;28;20485;-69
2021/08/07 01:39:50;;;;;;;8.00;3.43;;;17.20;98.00;;;;;;5072374;28;20898;-67
2021/08/07 01:42:19;;;;;;;7.10;4.00;;;17.20;97.80;;;;;;5072818;28;20815;-68
2021/08/07 01:44:47;;;;;;;4.87;2.83;;;17.10;97.80;;;;;;5091885;28;20925;-67
2021/08/07 01:47:21;;;;;;;4.37;3.97;;;17.10;97.70;;;;;;5091651;28;20470;-67
2021/08/07 01:49:57;;;;;;;3.67;3.07;;;17.10;97.70;;;;;;5091555;28;20917;-68
2021/08/07 01:52:28;;;;;;;4.23;2.97;;;17.00;97.60;;;;;;5092048;28;20438;-67
2021/08/07 01:55:00;;;;;;;4.93;3.60;;;17.00;97.70;;;;;;5091986;28;20868;-67
2021/08/07 01:57:32;;;;;;;4.27;3.13;;;16.90;97.60;;;;;;5091999;28;20972;-67
2021/08/07 02:00:02;;;;;;;3.80;3.20;;;16.90;97.60;;;;;;5092386;28;20496;-67
2021/08/07 02:02:30;;;;;;;4.87;3.03;;;16.80;97.70;;;;;;5092111;28;20501;-67
2021/08/07 02:04:59;;;;;;;6.43;3.33;;;16.80;97.80;;;;;;5092170;28;20982;-67
2021/08/07 02:07:28;;;;;;;4.53;3.30;;;16.80;97.70;;;;;;5091658;28;20484;-67
2021/08/07 02:09:56;;;;;;;4.80;3.50;;;16.70;97.80;;;;;;5092379;28;20792;-66
2021/08/07 02:12:23;;;;;;;5.63;3.93;;;16.70;97.90;;;;;;5091971;28;20427;-68
2021/08/07 02:14:53;;;;;;;5.30;3.10;;;16.60;97.90;;;;;;5092031;28;20439;-66
2021/08/07 02:17:22;;;;;;;3.80;2.97;;;16.60;97.80;;;;;;5092240;28;20513;-67
2021/08/07 02:19:50;;;;;;;4.73;3.30;;;16.50;98.10;;;;;;5091094;28;20427;-68
2021/08/07 02:22:19;;;;;;;5.73;3.80;;;16.50;98.20;;;;;;5092193;28;20518;-66
2021/08/07 02:24:46;;;;;;;4.03;3.07;;;16.50;98.40;;;;;;5092980;28;21010;-66
2021/08/07 02:27:15;;;;;;;5.37;3.70;;;16.50;98.50;;;;;;5094948;28;20789;-67
2021/08/07 02:29:43;;;;;;;5.10;3.50;;;16.40;98.40;;;;;;5094930;28;20873;-66
2021/08/07 02:32:11;;;;;;;6.00;3.63;;;16.40;98.40;;;;;;5094337;28;20431;-66
2021/08/07 02:34:41;;;;;;;6.07;4.90;;;16.30;98.40;;;;;;5095666;28;20435;-66
2021/08/07 02:37:09;;;;;;;5.90;3.93;;;16.40;98.90;;;;;;5095199;28;20899;-67
2021/08/07 02:39:37;;;;;;;6.13;4.10;;;16.30;98.50;;;;;;5095801;28;20435;-67
2021/08/07 02:42:05;;;;;;;4.10;3.63;;;16.40;98.70;;;;;;5095510;28;20480;-66
2021/08/07 02:44:32;;;;;;;5.50;4.33;;;16.40;98.90;;;;;;5095259;28;20435;-67
2021/08/07 02:47:00;;;;;;;7.43;4.10;;;16.30;99.10;;;;;;5095329;28;20518;-66
2021/08/07 02:49:28;;;;;;;4.87;4.33;;;16.30;99.20;;;;;;5095428;28;20998;-67
2021/08/07 02:51:57;;;;;;;6.37;4.50;;;16.30;99.40;;;;;;5095241;28;20794;-67
2021/08/07 02:54:24;;;;;;;5.43;3.50;;;16.40;99.60;;;;;;5095504;28;20446;-67
2021/08/07 02:56:52;;;;;;;5.90;3.93;;;16.40;99.30;;;;;;5095014;28;20543;-66
2021/08/07 02:59:21;;;;;;;6.40;3.60;;;16.40;99.30;;;;;;5095461;28;20526;-66
2021/08/07 03:01:48;;;;;;;4.10;3.70;;;16.40;99.40;;;;;;5094819;28;20442;-66
2021/08/07 03:04:15;;;;;;;5.20;3.60;;;16.40;99.40;;;;;;5095246;28;20447;-66
2021/08/07 03:06:42;;;;;;;6.67;3.80;;;16.40;99.30;;;;;;5095100;28;20435;-67
2021/08/07 03:09:11;;;;;;;4.87;4.03;;;16.40;99.20;;;;;;5094693;28;20435;-66
2021/08/07 03:11:38;;;;;;;4.60;3.90;;;16.40;99.00;;;;;;5094725;28;20431;-66
2021/08/07 03:14:05;;;;;;;4.10;3.50;;;16.40;98.80;;;;;;5095267;28;20442;-66
2021/08/07 03:16:32;;;;;;;5.50;3.30;;;16.30;98.90;;;;;;5094266;28;20432;-66
2021/08/07 03:19:00;;;;;;;7.30;4.83;;;16.40;99.10;;;;;;5095054;28;20435;-67
2021/08/07 03:21:27;;;;;;;4.90;3.80;;;16.40;99.10;;;;;;5094513;28;20827;-67
2021/08/07 03:23:54;;;;;;;3.20;2.83;;;16.40;99.00;;;;;;5094631;28;20443;-72
2021/08/07 03:26:23;;;;;;;6.37;3.43;;;16.50;99.00;;;;;;5094205;28;20463;-66
2021/08/07 03:28:51;;;;;;;11.20;3.50;;;16.50;98.90;;;;;;5093595;28;20450;-66
2021/08/07 03:31:18;;;;;;;4.03;2.97;;;16.50;98.90;;;;;;5094271;28;20921;-67
2021/08/07 03:33:45;;;;;;;4.77;3.23;;;16.50;98.90;;;;;;5094690;28;20443;-66
2021/08/07 03:36:12;;;;;;;3.50;3.17;;;16.50;98.80;;;;;;5093895;28;20435;-66
2021/08/07 03:38:39;;;;;;;3.73;3.10;;;16.50;99.30;;;;;;5094598;28;20483;-67
2021/08/07 03:41:06;;;;;;;4.90;3.20;;;16.50;98.90;;;;;;5094170;28;20605;-67
2021/08/07 03:43:35;;;;;;;4.13;3.30;;;16.50;98.90;;;;;;5094564;28;20443;-66
2021/08/07 03:46:02;;;;;;;3.87;3.23;;;16.50;98.80;;;;;;5093970;28;20832;-66
2021/08/07 03:48:29;;;;;;;7.00;3.37;;;16.50;98.70;;;;;;5094270;28;20514;-67
2021/08/07 03:50:56;;;;;;;4.90;3.10;;;16.50;98.70;;;;;;5094065;28;20431;-68
2021/08/07 03:53:23;;;;;;;4.77;3.60;;;16.50;98.70;;;;;;5093905;28;20953;-67
2021/08/07 03:55:50;;;;;;;3.70;2.30;;;16.50;98.80;;;;;;5094201;28;20441;-67
2021/08/07 03:58:18;;;;;;;3.20;2.60;;;16.50;98.60;;;;;;5093852;28;20566;-66
2021/08/07 04:00:46;;;;;;;3.63;2.60;;;16.40;98.30;;;;;;5094247;28;20978;-67
2021/08/07 04:03:13;;;;;;;6.07;3.23;;;16.40;98.40;;;;;;5093777;28;20929;-67
2021/08/07 04:05:40;;;;;;;4.80;3.40;;;16.30;98.40;;;;;;5094390;28;20512;-67
2021/08/07 04:08:09;;;;;;;5.27;3.30;;;16.30;98.60;;;;;;5093802;28;21041;-66
2021/08/07 04:10:37;;;;;;;4.50;3.60;;;16.20;98.80;;;;;;5093666;28;20447;-66
2021/08/07 04:13:05;;;;;;;5.57;3.20;;;16.20;98.90;;;;;;5094186;28;20438;-67
2021/08/07 04:15:32;;;;;;;3.50;2.90;;;16.30;99.00;;;;;;5093768;28;20466;-67
2021/08/07 04:18:01;;;;;;;3.83;2.60;;;16.30;98.90;;;;;;5093683;28;20504;-67
2021/08/07 04:20:28;;;;;;;4.83;3.47;;;16.30;99.00;;;;;;5073821;28;20787;-67
2021/08/07 04:22:55;;;;;;;4.47;3.40;;;16.30;99.10;;;;;;5073822;28;20471;-66
2021/08/07 04:25:22;;;;;;;4.20;3.13;;;16.40;99.10;;;;;;5092761;28;20957;-66
2021/08/07 04:27:49;;;;;;;6.80;4.13;;;16.30;99.10;;;;;;5093808;28;20431;-67
2021/08/07 04:30:16;;;;;;;7.10;5.63;;;16.40;99.20;;;;;;5093386;28;20438;-67
2021/08/07 04:32:44;;;;;;;5.83;4.60;;;16.40;99.20;;;;;;5093106;28;20443;-66
2021/08/07 04:35:13;;;;;;;6.17;4.00;;;16.40;99.40;;;;;;5093577;28;20575;-66
2021/08/07 04:37:49;;;;;;;5.33;3.97;;;16.40;99.40;;;;;;5093253;28;20478;-66
2021/08/07 04:40:17;;;;;;;4.27;3.50;;;16.40;99.40;;;;;;5093786;28;20430;-66
2021/08/07 04:42:44;;;;;;;4.47;3.40;;;16.30;99.30;;;;;;5092507;28;20500;-72
2021/08/07 04:45:13;;;;;;;5.67;4.03;;;16.30;99.50;;;;;;5093702;28;20478;-67
2021/08/07 04:47:54;;;;;;;5.13;4.07;;;16.20;99.60;;;;;;5092287;28;20971;-67
2021/08/07 04:50:23;;;;;;;4.33;3.80;;;16.20;99.80;;;;;;5093563;28;20427;-67
2021/08/07 04:52:51;;;;;;;5.50;3.30;;;16.20;99.90;;;;;;5093218;28;20432;-66
2021/08/07 04:55:18;;;;;;;5.97;3.60;;;16.20;99.90;;;;;;5093383;28;20435;-67
2021/08/07 04:57:45;;;;;;;9.60;3.47;;;16.30;99.90;;;;;;5092966;28;20548;-66
2021/08/07 05:00:13;;;;;;;6.87;4.23;;;16.30;99.90;;;;;;5093383;28;20442;-66
2021/08/07 05:02:40;;;;;;;4.63;3.20;;;16.30;99.90;;;;;;5092709;28;20964;-67
2021/08/07 05:05:08;;;;;;;5.60;4.40;;;16.40;99.90;;;;;;5093189;28;20439;-66
2021/08/07 05:07:36;;;;;;;6.27;3.70;;;16.40;99.90;;;;;;5092892;28;20443;-66
2021/08/07 05:10:06;;;;;;;5.93;3.90;;;16.40;99.90;;;;;;5092743;28;20922;-66
2021/08/07 05:12:33;;;;;;;5.50;3.63;;;16.40;99.90;;;;;;5092680;28;20439;-66
2021/08/07 05:15:01;;;;;;;5.20;4.17;;;16.50;99.90;;;;;;5092875;28;20446;-66
2021/08/07 05:17:28;;;;;;;4.57;3.50;;;16.60;99.90;;;;;;5092623;28;20813;-68
2021/08/07 05:19:55;;;;;;;4.63;3.93;;;16.70;99.90;;;;;;5093234;28;20439;-67
2021/08/07 05:22:23;;;;;;;3.87;3.30;;;16.90;99.90;;;;;;5092796;28;20481;-66
2021/08/07 05:24:52;;;;;;;5.33;3.27;;;16.90;99.90;;;;;;5092889;28;20875;-67
2021/08/07 05:27:19;;;;;;;4.63;3.30;;;17.00;99.90;;;;;;5092584;28;20435;-67
2021/08/07 05:29:47;;;;;;;6.10;4.20;;;17.10;99.90;;;;;;5092985;28;20451;-66
2021/08/07 05:32:14;;;;;;;5.10;3.60;;;17.10;99.90;;;;;;5092332;28;20983;-67
2021/08/07 05:34:41;;;;;;;4.27;3.77;;;17.20;99.70;;;;;;5092033;28;20439;-66
2021/08/07 05:37:08;;;;;;;6.90;4.03;;;17.30;99.80;;;;;;5092872;28;20489;-67
2021/08/07 05:39:35;;;;;;;5.93;4.10;;;17.40;99.60;;;;;;5092382;28;20941;-67
2021/08/07 05:42:04;;;;;;;8.53;4.23;;;17.40;99.40;;;;;;5092418;28;21021;-67
2021/08/07 05:44:31;;;;;;;8.33;4.53;;;17.50;99.60;;;;;;5092226;28;20508;-66
2021/08/07 05:46:58;;;;;;;8.67;5.40;;;17.60;99.60;;;;;;5092222;28;20933;-67
2021/08/07 05:49:25;;;;;;;10.43;4.47;;;17.80;99.50;;;;;;5091669;28;20435;-66
2021/08/07 05:51:53;;;;;;;7.50;5.50;;;17.80;99.30;;;;;;5092605;28;20445;-68
2021/08/07 05:54:20;;;;;;;6.77;4.83;;;17.90;99.30;;;;;;5091887;28;20471;-67
2021/08/07 05:56:49;;;;;;;6.20;4.23;;;17.90;99.10;;;;;;5092596;28;20563;-67
2021/08/07 05:59:17;;;;;;;5.37;4.03;;;18.00;99.00;;;;;;5093848;28;20980;-68
2021/08/07 06:01:44;;;;;;;6.40;4.00;;;18.10;99.10;;;;;;5096920;28;20766;-66
2021/08/07 06:04:11;;;;;;;5.60;3.70;;;18.20;99.20;;;;;;5096367;28;20442;-67
2021/08/07 06:06:38;;;;;;;4.47;4.07;;;18.40;99.50;;;;;;5076561;28;20444;-67
2021/08/07 06:09:05;;;;;;;8.53;4.03;;;18.40;99.40;;;;;;5076354;28;20439;-67
2021/08/07 06:11:33;;;;;;;6.33;4.30;;;18.50;99.30;;;;;;5095081;28;20441;-67
2021/08/07 06:14:00;;;;;;;4.57;3.80;;;18.60;99.40;;;;;;5096536;28;20435;-67
2021/08/07 06:16:28;;;;;;;5.03;3.63;;;18.70;99.00;;;;;;5096143;28;20528;-67
2021/08/07 06:18:55;;;;;;;5.47;4.20;;;18.80;98.70;;;;;;5096581;28;20497;-67
2021/08/07 06:21:23;;;;;;;6.37;3.90;;;18.80;98.00;;;;;;5096167;28;20437;-69
2021/08/07 06:23:50;;;;;;;8.13;3.47;;;18.90;98.00;;;;;;5096401;28;20492;-68
2021/08/07 06:26:17;;;;;;;4.27;3.53;;;19.00;97.90;;;;;;5092047;28;20475;-67
2021/08/07 06:28:45;;;;;;;4.70;3.73;;;19.10;97.70;;;;;;5094787;28;20964;-67
2021/08/07 06:31:12;;;;;;;5.50;3.80;;;19.10;97.40;;;;;;5094475;28;20889;-67
2021/08/07 06:33:41;;;;;;;6.70;4.30;;;19.20;97.50;;;;;;5094376;28;20439;-67
2021/08/07 06:36:08;;;;;;;9.17;5.50;;;19.30;97.70;;;;;;5089867;28;20442;-67
2021/08/07 06:38:35;;;;;;;5.20;3.40;;;19.40;97.30;;;;;;5094251;28;20827;-67
2021/08/07 06:41:03;;;;;;;7.60;3.73;;;19.40;97.90;;;;;;5094149;28;20445;-67
2021/08/07 06:43:31;;;;;;;8.13;3.67;;;19.50;97.40;;;;;;5094029;28;20438;-67
2021/08/07 06:45:58;;;;;;;5.13;3.73;;;19.50;97.30;;;;;;5093799;28;20470;-67
2021/08/07 06:48:26;;;;;;;5.43;3.77;;;19.50;96.90;;;;;;5094307;28;20496;-67
2021/08/07 06:50:54;;;;;;;3.83;2.93;;;19.40;97.00;;;;;;5094007;28;21094;-67
2021/08/07 06:53:21;;;;;;;4.73;3.70;;;19.50;97.50;;;;;;5093751;28;20426;-68
2021/08/07 06:55:49;;;;;;;5.93;3.83;;;19.60;97.30;;;;;;5093688;28;20522;-67
2021/08/07 06:58:16;;;;;;;4.90;3.73;;;19.60;97.30;;;;;;5093569;28;20474;-67
2021/08/07 07:00:43;;;;;;;3.80;3.20;;;19.70;97.40;;;;;;5093735;28;20431;-67
2021/08/07 07:03:10;;;;;;;5.83;4.17;;;19.80;97.50;;;;;;5093541;28;20497;-67
2021/08/07 07:05:37;;;;;;;4.50;3.37;;;19.90;97.70;;;;;;5093048;28;20439;-67
2021/08/07 07:08:06;;;;;;;6.40;3.93;;;20.00;97.40;;;;;;5093332;28;20508;-67
2021/08/07 07:10:34;;;;;;;5.30;3.40;;;20.10;97.50;;;;;;5093210;28;20439;-69
2021/08/07 07:13:01;;;;;;;4.70;3.00;;;20.30;97.60;;;;;;5092661;28;20527;-67
2021/08/07 07:15:29;;;;;;;6.73;3.27;;;20.40;96.70;;;;;;5093335;28;20431;-67
2021/08/07 07:17:56;;;;;;;4.90;4.40;;;20.40;95.90;;;;;;5092946;28;20428;-67
2021/08/07 07:20:24;;;;;;;4.60;2.93;;;20.50;96.10;;;;;;5093729;28;20531;-70
2021/08/07 07:22:51;;;;;;;5.40;3.47;;;20.60;96.20;;;;;;5093187;28;20511;-67
2021/08/07 07:25:20;;;;;;;4.13;3.10;;;20.80;96.00;;;;;;5093204;28;20474;-68
2021/08/07 07:27:48;;;;;;;5.50;3.77;;;20.90;96.20;;;;;;5092613;28;20792;-67
2021/08/07 07:30:16;;;;;;;6.93;2.90;;;21.00;96.10;;;;;;5092943;28;20504;-68
2021/08/07 07:32:43;;;;;;;5.67;3.30;;;21.10;96.10;;;;;;5093085;28;20950;-67
2021/08/07 07:35:11;;;;;;;7.00;3.13;;;21.20;94.90;;;;;;5093358;28;20443;-67
2021/08/07 07:37:38;;;;;;;6.00;3.00;;;21.30;94.90;;;;;;5092764;28;20465;-67
2021/08/07 07:40:07;;;;;;;6.40;3.80;;;21.40;95.00;;;;;;5092211;28;20558;-68
2021/08/07 07:42:36;;;;;;;4.93;3.00;;;21.50;95.20;;;;;;5092558;28;20432;-68
2021/08/07 07:45:03;;;;;;;7.30;3.20;;;21.60;95.40;;;;;;5092735;28;20474;-67
2021/08/07 07:47:30;;;;;;;5.57;3.10;;;21.80;95.40;;;;;;5092831;28;20431;-68
2021/08/07 07:49:57;;;;;;;3.80;3.13;;;21.90;94.70;;;;;;5092013;28;20436;-68
2021/08/07 07:52:24;;;;;;;4.17;3.27;;;22.00;94.10;;;;;;5092786;28;20443;-68
2021/08/07 07:54:51;;;;;;;4.87;3.00;;;22.00;92.60;;;;;;5092569;28;20435;-67
2021/08/07 07:57:20;;;;;;;6.37;2.60;;;22.10;92.40;;;;;;5093569;28;20534;-68
2021/08/07 07:59:48;;;;;;;6.43;2.70;;;22.20;92.40;;;;;;5093451;28;20570;-67
2021/08/07 08:02:15;;;;;;;3.40;2.73;;;22.40;92.40;;;;;;5093475;28;20443;-67
2021/08/07 08:04:42;;;;;;;7.97;4.90;;;22.60;91.90;;;;;;5093334;28;20850;-67
2021/08/07 08:07:09;;;;;;;6.50;4.10;;;22.80;90.20;;;;;;5093160;28;20608;-68
2021/08/07 08:09:36;;;;;;;4.77;3.67;;;23.00;91.10;;;;;;5089133;28;20518;-67
2021/08/07 08:12:04;;;;;;;6.93;2.50;;;23.20;91.00;;;;;;5093261;28;21028;-67
2021/08/07 08:14:31;;;;;;;7.10;2.83;;;23.40;91.00;;;;;;5093353;28;20475;-67
2021/08/07 08:16:59;;;;;;;3.20;2.33;;;23.60;91.10;;;;;;5092791;28;20437;-67
2021/08/07 08:19:26;;;;;;;3.57;2.57;;;23.90;89.30;;;;;;5093229;28;20565;-68
2021/08/07 08:21:53;;;;;;;4.23;2.57;;;24.00;87.80;;;;;;5091832;28;20848;-68
2021/08/07 08:24:20;;;;;;;8.27;3.10;;;24.10;86.00;;;;;;5093081;28;21013;-67
2021/08/07 08:26:48;;;;;;;5.13;2.30;;;24.20;86.40;;;;;;5092047;28;20968;-67
2021/08/07 08:29:15;;;;;;;4.00;2.40;;;24.30;83.60;;;;;;5092428;28;20436;-69
2021/08/07 08:31:42;;;;;;;3.70;2.70;;;24.40;84.50;;;;;;5091425;28;20527;-67
2021/08/07 08:34:11;;;;;;;3.10;2.40;;;24.50;83.60;;;;;;5092078;28;20530;-67
2021/08/07 08:36:38;;;;;;;3.20;2.30;;;24.50;82.80;;;;;;5092240;28;20948;-67
2021/08/07 08:39:17;;;;;;;4.17;3.10;;;24.60;83.20;;;;;;5091108;28;20907;-67
2021/08/07 08:41:54;;;;;;;6.37;2.80;;;24.70;81.90;;;;;;5092571;28;20451;-67
2021/08/07 08:44:21;;;;;;;6.97;2.70;;;24.80;83.50;;;;;;5091361;28;20536;-67
2021/08/07 08:46:52;;;;;;;6.93;2.73;;;25.00;83.10;;;;;;5092072;28;20433;-68
2021/08/07 08:49:21;;;;;;;5.43;2.53;;;25.30;82.40;;;;;;5091182;28;20448;-67
2021/08/07 08:51:49;;;;;;;4.97;2.67;;;25.40;79.10;;;;;;5091575;28;20438;-68
2021/08/07 08:54:18;;;;;;;5.33;2.40;;;25.50;79.10;;;;;;5091286;28;20789;-67
2021/08/07 08:56:50;;;;;;;4.10;2.60;;;25.70;79.60;;;;;;5091589;28;20438;-67
2021/08/07 08:59:20;;;;;;;5.93;2.47;;;25.80;75.60;;;;;;5091502;28;21115;-67
2021/08/07 09:01:48;;;;;;;3.83;2.53;;;25.80;74.80;;;;;;5091529;28;20482;-67
2021/08/07 09:04:15;;;;;;;5.23;2.67;;;25.90;77.10;;;;;;5091567;28;20438;-67
2021/08/07 09:06:44;;;;;;;5.70;2.60;;;25.80;75.20;;;;;;5091573;28;20580;-68
2021/08/07 09:09:13;;;;;;;5.07;2.13;;;25.90;75.00;;;;;;5091083;28;20902;-68
2021/08/07 09:11:48;;;;;;;3.27;2.43;;;26.20;77.80;;;;;;5091619;28;20427;-67
2021/08/07 09:14:22;;;;;;;3.03;2.20;;;26.60;73.50;;;;;;5091147;28;20520;-68
2021/08/07 09:17:11;;;;;;;3.70;2.53;;;27.00;68.30;;;;;;5091448;28;20439;-68
2021/08/07 09:19:56;;;;;;;4.20;3.17;;;27.30;71.30;;;;;;5091471;28;20483;-67
2021/08/07 09:22:27;;;;;;;5.67;2.73;;;27.70;72.60;;;;;;5089591;28;20439;-70
2021/08/07 09:25:05;;;;;;;4.17;2.93;;;27.90;65.30;;;;;;5087493;28;20462;-68
2021/08/07 09:27:33;;;;;;;3.10;2.20;;;28.00;66.50;;;;;;5090485;28;20498;-68
2021/08/07 09:30:01;;;;;;;3.70;2.23;;;28.10;63.20;;;;;;5089849;28;20486;-67
2021/08/07 09:32:28;;;;;;;4.27;2.50;;;28.20;64.10;;;;;;5091084;28;20598;-68
2021/08/07 09:35:08;;;;;;;4.90;2.90;;;28.40;65.40;;;;;;5090481;28;20777;-68
2021/08/07 09:37:37;;;;;;;4.30;3.07;;;28.70;64.00;;;;;;5092486;28;20429;-67
2021/08/07 09:40:06;;;;;;;4.20;2.73;;;29.00;65.80;;;;;;5091906;28;20488;-72
2021/08/07 09:42:34;;;;;;;3.70;2.40;;;29.30;65.70;;;;;;5091029;28;20443;-69
2021/08/07 09:45:05;;;;;;;4.17;2.90;;;29.50;62.40;;;;;;5091146;28;20442;-67
2021/08/07 09:47:33;;;;;;;2.87;2.20;;;29.60;60.00;;;;;;5091214;28;20439;-68
2021/08/07 09:50:02;;;;;;;3.43;2.80;;;29.70;59.70;;;;;;5094709;28;20441;-70
2021/08/07 09:52:39;;;;;;;4.37;2.77;;;29.70;58.40;;;;;;5089120;28;20425;-68
2021/08/07 09:55:07;;;;;;;4.17;2.93;;;29.60;59.70;;;;;;5091196;28;20435;-67
2021/08/07 09:57:34;;;;;;;5.20;2.77;;;29.50;61.40;;;;;;5090744;28;20439;-68
2021/08/07 10:00:01;;;;;;;2.97;2.00;;;29.50;61.60;;;;;;5090927;28;20490;-68
2021/08/07 10:02:32;;;;;;;4.47;2.50;;;29.50;60.70;;;;;;5091971;28;20443;-68
2021/08/07 10:05:00;;;;;;;2.80;2.30;;;29.50;59.70;;;;;;5092214;28;20438;-68
2021/08/07 10:07:28;;;;;;;4.40;2.50;;;29.40;60.50;;;;;;5092590;28;20440;-68
2021/08/07 10:09:57;;;;;;;3.90;3.00;;;29.40;59.40;;;;;;5096380;28;20442;-68
2021/08/07 10:12:24;;;;;;;5.60;3.40;;;29.40;59.90;;;;;;5105524;28;20435;-68
2021/08/07 10:14:53;;;;;;;6.43;3.83;;;29.40;59.60;;;;;;5093741;28;20427;-69
2021/08/07 10:17:23;;;;;;;2.47;2.00;;;29.60;59.50;;;;;;5092455;28;20921;-68
2021/08/07 10:19:51;;;;;;;4.40;2.07;;;29.80;57.40;;;;;;5096458;28;20560;-68
2021/08/07 10:22:20;;;;;;;3.77;2.23;;;30.00;58.90;;;;;;5112778;28;20437;-68
2021/08/07 10:24:48;;;;;;;3.53;2.47;;;30.20;59.20;;;;;;5110879;28;20454;-68
2021/08/07 10:27:19;;;;;;;3.63;2.50;;;30.30;55.80;;;;;;5092396;28;20500;-68
2021/08/07 10:29:48;;;;;;;3.03;2.17;;;30.30;54.90;;;;;;5095827;28;20524;-68
2021/08/07 10:32:16;;;;;;;3.70;2.57;;;30.20;53.80;;;;;;5112899;28;20470;-68
2021/08/07 10:34:47;;;;;;;2.60;2.33;;;30.00;53.20;;;;;;5108726;28;20434;-68
2021/08/07 10:37:15;;;;;;;2.93;1.87;;;29.80;53.50;;;;;;5092510;28;20504;-68
2021/08/07 10:39:42;;;;;;;3.07;2.33;;;29.70;54.10;;;;;;5093066;28;20893;-68
2021/08/07 10:42:11;;;;;;;4.50;2.20;;;29.60;55.20;;;;;;5102350;28;20445;-67
2021/08/07 10:44:43;;;;;;;2.60;2.13;;;29.60;56.50;;;;;;5110288;28;20468;-68
2021/08/07 10:47:10;;;;;;;3.67;2.33;;;29.70;55.70;;;;;;5095174;28;20447;-68
2021/08/07 10:49:39;;;;;;;7.90;2.63;;;29.70;53.80;;;;;;5095740;28;20431;-67
2021/08/07 10:52:37;;;;;;;3.97;2.30;;;29.70;56.40;;;;;;5096167;28;20947;-69
2021/08/07 10:55:06;;;;;;;3.53;2.40;;;29.70;53.90;;;;;;5100221;28;20434;-68
2021/08/07 10:57:36;;;;;;;4.97;2.63;;;29.70;53.80;;;;;;5112269;27;20517;-68
2021/08/07 11:00:22;;;;;;;3.10;1.70;;;29.80;55.60;;;;;;5103765;28;20504;-68
2021/08/07 11:02:50;;;;;;;3.07;2.00;;;29.80;56.60;;;;;;5115704;28;20434;-71
2021/08/07 11:05:17;;;;;;;3.07;2.07;;;29.80;53.60;;;;;;5116345;28;20528;-68
2021/08/07 11:07:44;;;;;;;3.80;2.37;;;29.80;54.20;;;;;;5113923;28;20481;-68
2021/08/07 11:10:13;;;;;;;2.87;2.10;;;29.90;53.30;;;;;;5115650;28;20440;-68
2021/08/07 11:12:46;;;;;;;4.00;2.33;;;29.90;52.40;;;;;;5116265;28;20434;-68
2021/08/07 11:15:29;;;;;;;2.80;2.10;;;30.00;50.20;;;;;;5109262;28;20459;-68
2021/08/07 11:17:56;;;;;;;2.93;1.80;;;30.10;51.70;;;;;;5116340;28;20525;-68
2021/08/07 11:20:42;;;;;;;5.10;2.10;;;30.10;48.30;;;;;;5116122;28;20524;-68
2021/08/07 11:23:20;;;;;;;2.70;1.70;;;30.20;50.40;;;;;;5102771;28;20927;-68
2021/08/07 11:26:07;;;;;;;4.60;2.20;;;30.20;48.00;;;;;;5097159;28;20575;-68
2021/08/07 11:28:50;;;;;;;3.30;2.13;;;30.10;48.60;;;;;;5091012;28;20443;-68
2021/08/07 11:31:21;;;;;;;2.77;1.97;;;30.10;50.20;;;;;;5089409;28;20435;-67
2021/08/07 11:34:07;;;;;;;3.77;2.77;;;30.10;49.80;;;;;;5093711;28;20518;-68
2021/08/07 11:36:38;;;;;;;2.83;2.10;;;30.10;50.00;;;;;;5093468;28;20846;-68
2021/08/07 11:39:06;;;;;;;3.00;1.97;;;30.00;49.20;;;;;;5093422;28;20442;-68
2021/08/07 11:41:42;;;;;;;2.20;1.73;;;30.10;50.70;;;;;;5093697;28;20442;-68
2021/08/07 11:44:09;;;;;;;4.47;2.10;;;30.30;52.50;;;;;;5093515;28;20525;-68
2021/08/07 11:46:43;;;;;;;3.77;2.30;;;30.50;53.50;;;;;;5093537;28;20526;-68
2021/08/07 11:49:10;;;;;;;4.93;1.90;;;30.80;52.40;;;;;;5093872;28;20804;-68
2021/08/07 11:51:38;;;;;;;3.73;2.63;;;30.90;51.60;;;;;;5093537;28;20431;-68
2021/08/07 11:54:13;;;;;;;3.33;1.90;;;31.00;51.70;;;;;;5093653;28;20439;-68
2021/08/07 11:56:40;;;;;;;3.00;1.77;;;31.10;49.00;;;;;;5089545;28;20852;-68
2021/08/07 11:59:22;;;;;;;3.40;1.63;;;31.20;51.00;;;;;;5093457;28;20518;-68
2021/08/07 12:01:50;;;;;;;5.80;2.30;;;31.20;48.70;;;;;;5093524;28;20858;-68
2021/08/07 12:04:17;;;;;;;2.87;2.00;;;31.20;49.10;;;;;;5093085;28;20768;-68
2021/08/07 12:06:45;;;;;;;4.53;1.83;;;31.10;48.80;;;;;;5093461;28;20534;-68
2021/08/07 12:09:21;;;;;;;3.17;2.20;;;31.10;48.60;;;;;;5090078;28;20439;-75
2021/08/07 12:11:51;;;;;;;3.27;2.00;;;31.10;46.00;;;;;;5084269;28;20443;-74
2021/08/07 12:14:28;;;;;;;2.87;1.97;;;31.00;47.20;;;;;;5080139;28;20444;-72
2021/08/07 12:17:05;;;;;;;3.30;1.97;;;31.00;49.10;;;;;;5089240;28;20578;-69
2021/08/07 12:19:34;;;;;;;7.90;3.10;;;31.00;48.80;;;;;;5091692;28;20477;-68
2021/08/07 12:22:05;;;;;;;2.60;1.80;;;31.10;48.40;;;;;;5094264;28;20439;-68
2021/08/07 12:24:33;;;;;;;4.37;2.00;;;31.20;46.50;;;;;;5093406;28;20438;-68
2021/08/07 12:27:00;;;;;;;2.53;1.90;;;31.30;47.70;;;;;;5091943;28;20981;-68
2021/08/07 12:29:30;;;;;;;4.40;2.23;;;31.40;47.30;;;;;;5086843;28;20480;-68
2021/08/07 12:32:00;;;;;;;3.13;2.37;;;31.40;46.70;;;;;;5091562;28;20440;-68
2021/08/07 12:34:29;;;;;;;4.10;2.10;;;31.40;47.30;;;;;;5090667;28;20500;-68
2021/08/07 12:37:07;;;;;;;4.23;2.07;;;31.50;50.20;;;;;;5088707;28;20928;-70
2021/08/07 12:39:40;;;;;;;3.10;2.17;;;31.60;49.30;;;;;;5091173;28;20472;-70
2021/08/07 12:42:07;;;;;;;3.40;2.23;;;31.70;48.60;;;;;;5086849;28;20522;-68
2021/08/07 12:44:35;;;;;;;3.70;2.10;;;31.90;48.60;;;;;;5091404;28;20443;-68
2021/08/07 12:47:04;;;;;;;5.80;2.40;;;32.00;47.20;;;;;;5092507;28;20439;-68
2021/08/07 12:49:39;;;;;;;3.03;2.10;;;32.10;48.00;;;;;;5092015;28;20514;-69
2021/08/07 12:52:08;;;;;;;4.13;2.60;;;32.10;47.20;;;;;;5093264;28;20446;-68
2021/08/07 12:54:35;;;;;;;6.50;2.30;;;32.10;47.90;;;;;;5092348;28;20431;-68
2021/08/07 12:57:02;;;;;;;4.60;2.37;;;32.10;48.90;;;;;;5092907;28;20435;-68
2021/08/07 12:59:29;;;;;;;9.30;2.57;;;32.10;47.70;;;;;;5096411;28;20439;-68